Brookston, Minnesota
Current Conditions -  °F | °C
As of 9:17 PM on Sunday 23 Nov 2014 (Local Time) from KCOQ Reporting Station
Light Rain Light Rain  
Wind Chill: 29°   Ceiling: 600
Heat Index: 36°   Visibility: 3mi
Dew Point: 34°   Wind: 8mph
Humidity: 93%   Direction: 320°NW
Pressure: 29.33"   Gusts: NA
Location:  46.87°N, 92.6°W
Report Text: KCOQ 240317Z AUTO 32007KT 3SM -RA BKN006 OVC050 02/01 A2933 RMK AO2
Loading
Personal Weather Stations






























Interactive Weather Map New forecast layout! Learn more

10-Day Weather Forecast

Advertisements
Track Severe Weather on mobile